createdAt,value
2019-04-27T00:04:40.705Z,68.90
2019-04-27T00:09:50.198Z,69.70
2019-04-27T00:14:52.988Z,70.30
2019-04-27T00:19:58.048Z,70.50
2019-04-27T00:25:03.334Z,70.20
2019-04-27T00:30:07.220Z,70.00
2019-04-27T00:35:13.739Z,70.10
2019-04-27T00:40:23.460Z,69.80
2019-04-27T00:45:27.122Z,70.00
2019-04-27T00:50:30.560Z,70.40
2019-04-27T00:55:35.629Z,70.00
2019-04-27T01:00:46.457Z,70.00
2019-04-27T01:05:50.024Z,70.00
2019-04-27T01:10:53.858Z,69.70
2019-04-27T01:15:57.563Z,70.20
2019-04-27T01:21:01.244Z,70.90
2019-04-27T01:26:06.637Z,72.00
2019-04-27T01:31:11.775Z,72.30
2019-04-27T01:36:15.203Z,72.80
2019-04-27T01:41:19.150Z,73.20
2019-04-27T01:46:23.076Z,73.50
2019-04-27T01:51:26.503Z,73.70
2019-04-27T01:56:29.934Z,74.00
2019-04-27T02:01:38.957Z,74.40
2019-04-27T02:06:42.767Z,74.00
2019-04-27T02:11:46.205Z,74.10
2019-04-27T02:16:49.615Z,74.20
2019-04-27T02:21:53.133Z,74.70
2019-04-27T02:26:56.565Z,74.90
2019-04-27T02:32:10.882Z,74.70
2019-04-27T02:37:14.648Z,75.00
2019-04-27T02:42:20.072Z,75.00
2019-04-27T02:47:23.686Z,75.80
2019-04-27T02:52:30.123Z,75.40
2019-04-27T02:57:33.755Z,75.50
2019-04-27T03:02:40.194Z,75.80
2019-04-27T03:07:43.893Z,76.00
2019-04-27T03:12:50.004Z,75.90
2019-04-27T03:18:10.164Z,75.70
2019-04-27T03:23:14.204Z,75.60
2019-04-27T03:28:20.049Z,75.90
2019-04-27T03:33:22.975Z,75.70
2019-04-27T03:38:26.822Z,76.80
2019-04-27T03:43:30.407Z,76.40
2019-04-27T03:48:33.856Z,76.70
2019-04-27T03:53:39.703Z,77.10
2019-04-27T03:58:52.002Z,77.20
2019-04-27T04:03:55.581Z,77.00
2019-04-27T04:09:00.194Z,77.30
2019-04-27T04:14:05.688Z,76.80
2019-04-27T04:19:10.583Z,76.60
2019-04-27T04:24:14.014Z,76.80
2019-04-27T04:29:20.087Z,76.20
2019-04-27T04:34:23.094Z,75.60
2019-04-27T04:39:26.786Z,75.20
2019-04-27T04:44:41.081Z,74.40
2019-04-27T04:49:44.516Z,74.50
2019-04-27T04:54:49.529Z,74.40
2019-04-27T04:59:53.198Z,74.10
2019-04-27T05:04:56.657Z,73.80
2019-04-27T05:10:00.091Z,73.50
2019-04-27T05:15:04.358Z,74.10
2019-04-27T05:20:24.686Z,74.00
2019-04-27T05:25:28.598Z,73.90
2019-04-27T05:30:32.262Z,73.80
2019-04-27T05:35:35.701Z,73.00
2019-04-27T05:40:39.822Z,73.30
2019-04-27T05:46:29.779Z,73.00
2019-04-27T05:51:36.932Z,73.70
2019-04-27T05:56:36.130Z,73.50
2019-04-27T06:01:39.557Z,73.60
2019-04-27T06:06:42.989Z,73.40
2019-04-27T06:11:46.413Z,73.60
2019-04-27T06:16:51.398Z,73.20
2019-04-27T06:21:55.375Z,74.20
2019-04-27T06:26:59.687Z,74.60
2019-04-27T06:32:03.250Z,84.10
2019-04-27T06:37:06.662Z,80.70
2019-04-27T06:42:18.546Z,73.90
2019-04-27T06:47:15.493Z,75.10
2019-04-27T06:52:18.921Z,75.60
2019-04-27T06:57:22.350Z,75.50
2019-04-27T07:02:25.777Z,75.50
2019-04-27T07:07:29.604Z,75.00
2019-04-27T07:12:33.333Z,75.30
2019-04-27T07:17:36.753Z,75.20
2019-04-27T07:22:40.171Z,75.30
2019-04-27T07:27:43.864Z,75.40
2019-04-27T07:32:48.813Z,75.90
2019-04-27T07:37:52.653Z,75.80
2019-04-27T07:42:59.356Z,76.90
2019-04-27T07:48:03.256Z,77.10
2019-04-27T07:53:08.570Z,78.80
2019-04-27T07:58:12.206Z,78.60
2019-04-27T08:03:15.645Z,80.00
2019-04-27T08:08:19.131Z,80.40
2019-04-27T08:13:22.579Z,81.60
2019-04-27T08:18:26.161Z,81.70
2019-04-27T08:23:31.139Z,81.10
2019-04-27T08:28:36.276Z,81.40
2019-04-27T08:33:39.702Z,81.20
2019-04-27T08:38:43.128Z,81.80
2019-04-27T08:43:46.566Z,81.90
2019-04-27T08:48:49.996Z,82.00
2019-04-27T08:53:53.396Z,81.70
2019-04-27T08:58:57.074Z,81.50
2019-04-27T09:04:00.501Z,81.20
2019-04-27T09:09:09.470Z,80.80
2019-04-27T09:14:23.607Z,79.60
2019-04-27T09:19:31.840Z,76.80
2019-04-27T09:24:35.360Z,73.90
2019-04-27T09:29:39.482Z,71.80
2019-04-27T09:34:43.416Z,70.50
2019-04-27T09:39:47.186Z,70.30
2019-04-27T09:44:50.870Z,67.90
2019-04-27T09:49:54.289Z,71.30
2019-04-27T09:54:57.718Z,68.80
2019-04-27T10:00:01.141Z,69.30
2019-04-27T10:05:06.124Z,68.90
2019-04-27T10:10:10.188Z,69.50
2019-04-27T10:15:14.202Z,69.20
2019-04-27T10:20:17.628Z,69.40
2019-04-27T10:25:22.702Z,68.70
2019-04-27T10:30:26.724Z,69.20
2019-04-27T10:35:30.414Z,68.40
2019-04-27T10:40:34.044Z,66.80
2019-04-27T10:45:38.013Z,68.10
2019-04-27T10:50:41.929Z,72.70
2019-04-27T10:55:46.425Z,72.00
2019-04-27T11:00:58.481Z,73.20
2019-04-27T11:06:05.758Z,74.30
2019-04-27T11:11:09.545Z,75.00
2019-04-27T11:16:13.007Z,74.70
2019-04-27T11:21:16.524Z,73.60
2019-04-27T11:26:19.964Z,75.70
2019-04-27T11:31:23.426Z,74.90
2019-04-27T11:36:28.579Z,76.10
2019-04-27T11:41:32.292Z,77.80
2019-04-27T11:46:35.742Z,76.10
2019-04-27T11:51:39.370Z,75.00
2019-04-27T11:56:42.822Z,75.20
2019-04-27T12:01:46.498Z,74.70
2019-04-27T12:06:50.186Z,72.50
2019-04-27T12:11:57.460Z,71.60
2019-04-27T12:16:59.903Z,74.40
2019-04-27T12:22:03.586Z,72.60
2019-04-27T12:27:08.649Z,75.30
2019-04-27T12:32:12.160Z,71.10
2019-04-27T12:37:15.788Z,73.80
2019-04-27T12:42:21.094Z,71.20
2019-04-27T12:47:26.316Z,70.30
2019-04-27T12:52:29.937Z,69.00
2019-04-27T12:57:36.427Z,70.10
2019-04-27T13:02:40.238Z,68.90
2019-04-27T13:07:43.931Z,68.60
2019-04-27T13:12:47.446Z,68.70
2019-04-27T13:17:51.161Z,69.40
2019-04-27T13:22:54.850Z,64.40
2019-04-27T13:27:58.293Z,62.80
2019-04-27T13:33:01.728Z,60.80
2019-04-27T13:38:05.406Z,58.80
2019-04-27T13:43:25.970Z,60.10
2019-04-27T13:48:31.105Z,60.00
2019-04-27T13:53:36.642Z,59.70
2019-04-27T13:58:40.206Z,59.50
2019-04-27T14:03:45.181Z,56.60
2019-04-27T14:08:48.738Z,57.20
2019-04-27T14:13:52.176Z,58.00
2019-04-27T14:18:55.692Z,55.90
2019-04-27T14:23:59.371Z,53.30
2019-04-27T14:29:03.156Z,53.80
2019-04-27T14:34:06.597Z,53.80
2019-04-27T14:39:11.692Z,55.90
2019-04-27T14:44:15.131Z,53.40
2019-04-27T14:49:19.908Z,55.00
2019-04-27T14:54:23.857Z,56.70
2019-04-27T14:59:27.309Z,57.90
2019-04-27T15:04:31.776Z,61.70
2019-04-27T15:09:36.415Z,64.80
2019-04-27T15:14:39.891Z,67.90
2019-04-27T15:19:48.368Z,67.90
2019-04-27T15:30:59.548Z,65.30
2019-04-27T15:36:14.629Z,62.00
2019-04-27T15:41:19.476Z,63.90
2019-04-27T15:46:23.402Z,65.40
2019-04-27T15:51:28.320Z,67.20
2019-04-27T15:56:35.285Z,69.10
2019-04-27T16:01:39.505Z,70.60
2019-04-27T16:06:47.668Z,70.40
2019-04-27T16:11:57.706Z,68.90
2019-04-27T16:16:53.170Z,70.30
2019-04-27T16:21:58.979Z,72.00
2019-04-27T16:27:02.257Z,70.20
2019-04-27T16:32:09.651Z,71.30
2019-04-27T16:37:13.907Z,70.90
2019-04-27T16:42:18.628Z,69.50
2019-04-27T16:47:24.576Z,67.30
2019-04-27T16:52:29.694Z,68.20
2019-04-27T16:57:37.454Z,68.70
2019-04-27T17:02:40.247Z,69.40
2019-04-27T17:07:44.141Z,68.60
2019-04-27T17:12:48.689Z,68.90
2019-04-27T17:17:58.936Z,68.10
2019-04-27T17:23:02.625Z,67.60
2019-04-27T17:28:08.021Z,66.60
2019-04-27T17:33:44.604Z,66.80
2019-04-27T17:39:08.686Z,66.80
2019-04-27T17:44:19.200Z,68.40
2019-04-27T17:49:18.927Z,68.80
2019-04-27T17:54:22.716Z,67.60
2019-04-27T17:59:26.130Z,65.10
2019-04-27T18:04:32.981Z,63.60
2019-04-27T18:09:39.993Z,62.80
2019-04-27T18:14:41.283Z,63.60
2019-04-27T18:19:46.651Z,64.40
2019-04-27T18:25:03.399Z,63.20
2019-04-27T18:30:21.706Z,63.80
2019-04-27T18:35:32.365Z,63.40
2019-04-27T18:40:35.823Z,64.70
2019-04-27T18:45:44.710Z,66.30
2019-04-27T18:50:52.377Z,67.40
2019-04-27T18:56:10.439Z,67.50
2019-04-27T19:01:13.284Z,68.40
2019-04-27T19:06:18.785Z,69.00
2019-04-27T19:11:23.658Z,69.00
2019-04-27T19:16:26.345Z,69.40
2019-04-27T19:21:31.065Z,69.90
2019-04-27T19:26:38.368Z,71.30
2019-04-27T19:31:43.585Z,71.60
2019-04-27T19:36:48.869Z,70.80
2019-04-27T19:42:00.261Z,71.50
2019-04-27T19:47:00.001Z,72.50
2019-04-27T19:52:05.153Z,72.60
2019-04-27T19:57:31.183Z,73.70
2019-04-27T20:08:21.988Z,74.10
2019-04-27T20:13:25.665Z,70.00
2019-04-27T20:18:29.259Z,68.70
2019-04-27T20:23:32.780Z,67.70
2019-04-27T20:28:38.471Z,68.20
2019-04-27T20:33:41.655Z,67.10
2019-04-27T20:38:45.248Z,67.10
2019-04-27T20:43:50.909Z,64.10
2019-04-27T20:48:54.413Z,65.00
2019-04-27T20:54:01.675Z,64.10
2019-04-27T20:59:06.150Z,64.40
2019-04-27T21:04:08.788Z,64.30
2019-04-27T21:09:17.620Z,63.70
2019-04-27T21:14:21.785Z,64.90
2019-04-27T21:19:25.397Z,64.20
2019-04-27T21:24:30.775Z,64.00
2019-04-27T21:29:34.234Z,63.70
2019-04-27T21:34:37.687Z,63.70
2019-04-27T21:39:41.351Z,63.50
2019-04-27T21:44:44.781Z,62.80
2019-04-27T21:49:48.504Z,62.90
2019-04-27T21:54:53.061Z,62.90
2019-04-27T21:59:56.507Z,63.30
2019-04-27T22:04:59.942Z,63.50
2019-04-27T22:10:04.777Z,63.70
2019-04-27T22:15:08.338Z,64.00
2019-04-27T22:20:12.353Z,63.80
2019-04-27T22:25:15.868Z,63.60
2019-04-27T22:30:20.974Z,63.50
2019-04-27T22:35:24.767Z,64.30
2019-04-27T22:40:46.606Z,63.90
2019-04-27T22:45:51.067Z,65.20
2019-04-27T22:50:54.556Z,64.30
2019-04-27T22:56:16.109Z,64.50
2019-04-27T23:01:36.513Z,65.40
2019-04-27T23:06:41.739Z,66.40
2019-04-27T23:11:45.417Z,65.20
2019-04-27T23:17:03.145Z,64.70
2019-04-27T23:22:06.831Z,66.10
2019-04-27T23:27:11.474Z,66.10
2019-04-27T23:32:25.228Z,65.90
2019-04-27T23:37:28.659Z,65.30
2019-04-27T23:42:32.094Z,66.60
2019-04-27T23:47:35.721Z,66.50
2019-04-27T23:52:58.724Z,66.10
2019-04-27T23:58:02.529Z,66.40
